Time;durP1;ratioP1;P1;durP2;ratioP2;P2;SDS_P1;SDS_P2;PMS_P1;PMS_P2;Temp;Humidity;BMP_temperature;BMP_pressure;BME280_temperature;BME280_humidity;BME280_pressure;Samples;Min_cycle;Max_cycle;Signal;HPM_P1;HPM_P2
2023/03/12 00:00:42;;;;;;;;;27.25;22.25;;;;;10.12;58.25;100603.81;5007320;28;45390;-66
2023/03/12 00:03:08;;;;;;;;;26.00;18.75;;;;;10.14;58.29;100609.88;5000347;28;46783;-66
2023/03/12 00:05:36;;;;;;;;;24.00;20.00;;;;;10.15;58.12;100606.38;5033201;28;45722;-66
2023/03/12 00:08:02;;;;;;;;;21.75;19.50;;;;;10.14;58.52;100599.38;5017499;28;45479;-66
2023/03/12 00:10:28;;;;;;;;;23.25;21.50;;;;;10.14;58.10;100586.25;5016179;28;45455;-66
2023/03/12 00:12:53;;;;;;;;;21.75;18.25;;;;;10.14;58.56;100581.00;5017381;28;45384;-66
2023/03/12 00:15:19;;;;;;;;;21.50;19.25;;;;;10.15;58.51;100582.72;5017580;28;45266;-65
2023/03/12 00:17:44;;;;;;;;;19.75;19.00;;;;;10.14;58.54;100588.88;5017031;28;45192;-66
2023/03/12 00:20:11;;;;;;;;;19.75;19.00;;;;;10.14;58.70;100600.25;5016468;28;45321;-64
2023/03/12 00:22:37;;;;;;;;;20.25;18.75;;;;;10.15;58.56;100586.25;5032429;28;47242;-66
2023/03/12 00:25:04;;;;;;;;;24.25;22.00;;;;;10.15;58.50;100596.75;5017235;28;45322;-66
2023/03/12 00:27:32;;;;;;;;;20.25;17.75;;;;;10.14;58.94;100584.50;5017066;28;45472;-66
2023/03/12 00:29:57;;;;;;;;;20.50;20.00;;;;;10.14;58.58;100586.25;5017257;28;45438;-66
2023/03/12 00:32:23;;;;;;;;;23.50;19.00;;;;;10.15;58.79;100577.47;5016383;28;50137;-65
2023/03/12 00:34:53;;;;;;;;;19.25;17.50;;;;;10.16;58.74;100568.72;5017034;28;45275;-65
2023/03/12 00:37:19;;;;;;;;;24.00;16.75;;;;;10.16;58.84;100563.47;5017157;28;45291;-65
2023/03/12 00:39:45;;;;;;;;;20.00;19.00;;;;;10.17;59.00;100552.06;5015831;28;45515;-65
2023/03/12 00:42:10;;;;;;;;;17.00;13.00;;;;;10.20;58.99;100552.00;5017073;28;45349;-65
2023/03/12 00:44:35;;;;;;;;;21.00;18.00;;;;;10.20;59.03;100552.91;5017380;28;45352;-65
2023/03/12 00:47:01;;;;;;;;;19.75;18.50;;;;;10.20;58.92;100573.03;5016869;28;45294;-66
2023/03/12 00:49:26;;;;;;;;;22.00;18.00;;;;;10.23;58.96;100586.97;5010319;28;50526;-66
2023/03/12 00:51:52;;;;;;;;;18.75;17.75;;;;;10.24;59.02;100586.09;5001584;28;46260;-66
2023/03/12 00:54:18;;;;;;;;;20.00;18.75;;;;;10.25;58.82;100589.56;5016960;28;45386;-66
2023/03/12 00:56:45;;;;;;;;;23.75;20.00;;;;;10.26;59.15;100586.06;5017107;28;45378;-66
2023/03/12 00:59:12;;;;;;;;;19.25;16.00;;;;;10.27;59.19;100594.81;5016677;28;45534;-66
2023/03/12 01:01:38;;;;;;;;;15.75;14.25;;;;;10.27;59.16;100593.06;4998751;28;45268;-66
2023/03/12 01:04:03;;;;;;;;;17.25;17.25;;;;;10.27;59.21;100593.06;5008604;28;45222;-66
2023/03/12 01:06:29;;;;;;;;;19.00;16.25;;;;;10.31;59.23;100600.00;5016777;28;45306;-66
2023/03/12 01:08:54;;;;;;;;;16.00;12.25;;;;;10.33;59.25;100605.25;5016706;28;45493;-66
2023/03/12 01:11:21;;;;;;;;;18.00;16.00;;;;;10.35;59.44;100619.19;5015344;28;47090;-66
2023/03/12 01:13:47;;;;;;;;;19.00;16.75;;;;;10.37;59.34;100617.47;5016874;28;45431;-66
2023/03/12 01:16:13;;;;;;;;;22.50;18.50;;;;;10.41;59.45;100624.41;5032072;28;45549;-66
2023/03/12 01:18:38;;;;;;;;;15.00;11.25;;;;;10.41;59.51;100619.16;5032027;28;45392;-66
2023/03/12 01:21:04;;;;;;;;;17.75;16.00;;;;;10.41;59.51;100616.50;5016602;28;45393;-66
2023/03/12 01:23:30;;;;;;;;;21.75;17.75;;;;;10.45;59.56;100622.59;5015423;28;45258;-65
2023/03/12 01:25:55;;;;;;;;;18.00;16.00;;;;;10.46;59.52;100611.19;5031822;28;45422;-66
2023/03/12 01:28:22;;;;;;;;;20.00;13.50;;;;;10.48;59.59;100623.41;5016911;28;45338;-65
2023/03/12 01:30:47;;;;;;;;;22.75;19.50;;;;;10.50;59.65;100612.88;5018107;28;45399;-66
2023/03/12 01:33:13;;;;;;;;;16.25;14.75;;;;;10.49;59.58;100616.38;5019585;28;45341;-65
2023/03/12 01:35:40;;;;;;;;;16.75;16.00;;;;;10.52;59.68;100627.72;5018514;28;45572;-65
2023/03/12 01:38:06;;;;;;;;;19.50;16.00;;;;;10.54;59.84;100614.56;5021039;27;45330;-65
2023/03/12 01:40:34;;;;;;;;;19.25;15.50;;;;;10.55;59.71;100613.66;5019155;28;46395;-65
2023/03/12 01:43:29;;;;;;;;;20.25;15.75;;;;;10.56;59.73;100607.53;5018267;28;45939;-65
2023/03/12 01:46:21;;;;;;;;;20.50;15.25;;;;;10.56;59.66;100605.78;5019533;28;45499;-66
2023/03/12 01:49:06;;;;;;;;;19.75;16.50;;;;;10.57;59.89;100604.00;5017937;28;45446;-65
2023/03/12 01:51:43;;;;;;;;;20.75;17.50;;;;;10.54;59.72;100599.69;5001133;28;47340;-66
2023/03/12 01:54:20;;;;;;;;;17.75;15.00;;;;;10.55;60.01;100605.78;5034605;28;45354;-65
2023/03/12 01:56:47;;;;;;;;;20.25;17.75;;;;;10.56;60.16;100602.28;5034688;27;45434;-65
2023/03/12 01:59:22;;;;;;;;;15.00;10.25;;;;;10.55;59.94;100603.16;5019180;28;45239;-66
2023/03/12 02:01:49;;;;;;;;;19.00;15.50;;;;;10.53;59.85;100602.34;5014905;28;47032;-66
2023/03/12 02:04:17;;;;;;;;;16.25;14.25;;;;;10.52;60.09;100596.19;5012246;28;45456;-66
2023/03/12 02:06:55;;;;;;;;;16.50;14.75;;;;;10.55;59.90;100600.53;5019246;28;45408;-64
2023/03/12 02:09:20;;;;;;;;;19.00;14.25;;;;;10.55;59.97;100595.28;5018893;28;45249;-63
2023/03/12 02:11:49;;;;;;;;;15.25;13.75;;;;;10.53;60.19;100591.81;5019239;28;46220;-63
2023/03/12 02:14:15;;;;;;;;;18.00;17.50;;;;;10.55;60.13;100590.03;5018968;28;45349;-63
2023/03/12 02:16:41;;;;;;;;;19.25;14.25;;;;;10.54;60.21;100591.78;5019248;28;45332;-63
2023/03/12 02:19:17;;;;;;;;;18.25;15.25;;;;;10.53;60.25;100589.19;5017846;28;45457;-63
2023/03/12 02:21:43;;;;;;;;;16.50;14.75;;;;;10.55;60.11;100595.28;5017344;27;46509;-63
2023/03/12 02:24:30;;;;;;;;;14.75;13.75;;;;;10.47;60.21;100578.78;5018727;28;45290;-63
2023/03/12 02:26:56;;;;;;;;;16.00;13.00;;;;;10.49;60.18;100580.50;5019417;28;45428;-63
2023/03/12 02:29:21;;;;;;;;;18.25;17.75;;;;;10.54;60.33;100593.53;5018794;28;45169;-63
2023/03/12 02:31:54;;;;;;;;;16.25;13.75;;;;;10.54;60.09;100593.53;5018925;28;46074;-64
2023/03/12 02:34:19;;;;;;;;;19.25;15.00;;;;;10.52;60.18;100590.94;5019026;28;45267;-64
2023/03/12 02:36:44;;;;;;;;;17.00;15.00;;;;;10.53;60.28;100594.44;5017408;28;45307;-64
2023/03/12 02:39:12;;;;;;;;;18.50;16.25;;;;;10.53;60.23;100602.34;5018827;28;45172;-64
2023/03/12 02:41:42;;;;;;;;;16.75;14.50;;;;;10.53;60.37;100604.97;5017667;28;45285;-64
2023/03/12 02:44:18;;;;;;;;;15.75;14.25;;;;;10.51;60.44;100604.97;5018643;28;45291;-64
2023/03/12 02:46:47;;;;;;;;;16.50;13.75;;;;;10.52;60.41;100614.59;5017640;28;45468;-64
2023/03/12 02:49:15;;;;;;;;;16.75;14.50;;;;;10.51;60.33;100615.47;5013528;28;45500;-64
2023/03/12 02:51:41;;;;;;;;;19.50;17.75;;;;;10.50;60.45;100607.63;5001832;28;46176;-64
2023/03/12 02:54:07;;;;;;;;;16.25;14.75;;;;;10.51;60.42;100612.00;5018445;28;45333;-64
2023/03/12 02:56:32;;;;;;;;;14.25;11.00;;;;;10.51;60.45;100615.47;5018551;28;45524;-64
2023/03/12 02:58:58;;;;;;;;;14.25;14.00;;;;;10.50;60.23;100613.75;5018741;28;45462;-64
2023/03/12 03:01:24;;;;;;;;;16.75;13.75;;;;;10.49;60.45;100609.41;5002299;28;46839;-64
2023/03/12 03:03:50;;;;;;;;;20.75;15.50;;;;;10.49;60.22;100621.66;5009038;28;45400;-64
2023/03/12 03:06:15;;;;;;;;;15.50;14.25;;;;;10.48;60.40;100626.03;5018569;28;45238;-63
2023/03/12 03:08:41;;;;;;;;;12.50;11.00;;;;;10.47;60.39;100616.41;5018221;28;45176;-64
2023/03/12 03:11:06;;;;;;;;;16.00;11.25;;;;;10.48;60.29;100617.31;5018036;28;51505;-64
2023/03/12 03:13:32;;;;;;;;;11.50;9.75;;;;;10.44;60.43;100611.22;5018485;28;45206;-64
2023/03/12 03:16:00;;;;;;;;;9.50;8.00;;;;;10.47;60.50;100619.06;5018395;28;45247;-64
2023/03/12 03:18:25;;;;;;;;;8.25;7.25;;;;;10.44;60.50;100611.22;5018149;28;45326;-64
2023/03/12 03:20:56;;;;;;;;;16.75;11.00;;;;;10.46;60.52;100622.56;5018089;28;46565;-64
2023/03/12 03:23:21;;;;;;;;;9.75;6.75;;;;;10.48;60.60;100619.94;5018253;28;45237;-64
2023/03/12 03:25:46;;;;;;;;;14.00;10.75;;;;;10.47;60.58;100618.19;5018160;28;45214;-64
2023/03/12 03:28:12;;;;;;;;;12.00;9.50;;;;;10.49;60.70;100619.03;5017878;28;56868;-63
2023/03/12 03:30:37;;;;;;;;;11.25;8.00;;;;;10.48;60.68;100615.53;5017820;28;55147;-64
2023/03/12 03:33:03;;;;;;;;;13.00;6.50;;;;;10.47;60.69;100620.81;5017040;28;45329;-64
2023/03/12 03:35:29;;;;;;;;;13.25;10.75;;;;;10.50;60.63;100644.41;5018254;28;45372;-64
2023/03/12 03:37:54;;;;;;;;;11.25;7.75;;;;;10.48;60.68;100640.97;5016896;28;45527;-63
2023/03/12 03:40:19;;;;;;;;;9.25;8.00;;;;;10.51;60.65;100644.38;5017940;28;46036;-64
2023/03/12 03:42:45;;;;;;;;;14.00;8.50;;;;;10.51;60.76;100646.16;5018229;27;45334;-64
2023/03/12 03:45:10;;;;;;;;;11.75;7.00;;;;;10.53;60.63;100661.00;5018143;28;45318;-64
2023/03/12 03:47:36;;;;;;;;;11.00;7.00;;;;;10.53;60.74;100650.47;5018010;28;45394;-64
2023/03/12 03:50:02;;;;;;;;;12.00;7.25;;;;;10.54;60.85;100652.22;5006789;28;45759;-64
2023/03/12 03:52:28;;;;;;;;;12.75;7.75;;;;;10.56;60.66;100654.81;5007796;28;45344;-64
2023/03/12 03:54:53;;;;;;;;;9.75;6.25;;;;;10.56;60.95;100654.81;5017639;28;45309;-64
2023/03/12 03:57:18;;;;;;;;;8.25;7.00;;;;;10.55;60.98;100651.34;5018105;28;45476;-64
2023/03/12 03:59:44;;;;;;;;;13.50;9.50;;;;;10.57;60.89;100651.31;5015208;28;45297;-64
2023/03/12 04:02:09;;;;;;;;;11.00;9.00;;;;;10.56;60.78;100655.72;4998474;28;45204;-64
2023/03/12 04:04:34;;;;;;;;;7.50;6.25;;;;;10.56;61.02;100663.59;5014291;28;45989;-64
2023/03/12 04:07:00;;;;;;;;;9.50;6.50;;;;;10.56;60.93;100662.72;5017248;28;45476;-64
2023/03/12 04:09:25;;;;;;;;;8.50;7.00;;;;;10.56;60.77;100660.97;5017506;28;45372;-64
2023/03/12 04:11:50;;;;;;;;;8.00;6.00;;;;;10.56;61.07;100671.47;5017936;28;45273;-64
2023/03/12 04:14:16;;;;;;;;;8.50;7.25;;;;;10.56;61.18;100681.09;5016528;28;45332;-64
2023/03/12 04:16:41;;;;;;;;;9.75;7.25;;;;;10.54;61.04;100681.13;5017765;28;46054;-64
2023/03/12 04:19:06;;;;;;;;;10.00;6.25;;;;;10.55;60.79;100689.88;5017323;28;48956;-64
2023/03/12 04:21:31;;;;;;;;;5.75;5.00;;;;;10.54;60.82;100696.00;5016291;28;45247;-64
2023/03/12 04:23:57;;;;;;;;;9.75;6.00;;;;;10.54;61.15;100696.00;5017494;28;45489;-64
2023/03/12 04:26:22;;;;;;;;;10.00;7.25;;;;;10.54;60.96;100698.63;5017614;28;45521;-64
2023/03/12 04:28:47;;;;;;;;;8.25;8.25;;;;;10.54;61.01;100709.16;5015972;28;45324;-64
2023/03/12 04:31:13;;;;;;;;;8.75;4.50;;;;;10.51;60.65;100714.47;5017643;28;45253;-64
2023/03/12 04:33:39;;;;;;;;;10.25;6.00;;;;;10.50;61.01;100710.09;5017617;28;45223;-65
2023/03/12 04:36:05;;;;;;;;;8.00;6.25;;;;;10.50;60.88;100717.97;5016908;28;45361;-64
2023/03/12 04:38:31;;;;;;;;;11.00;7.25;;;;;10.50;61.10;100725.84;5016785;28;45308;-64
2023/03/12 04:40:58;;;;;;;;;7.00;5.00;;;;;10.51;61.13;100725.81;5032551;28;45318;-64
2023/03/12 04:43:23;;;;;;;;;9.50;6.00;;;;;10.52;60.84;100737.22;5017692;28;45393;-64
2023/03/12 04:45:49;;;;;;;;;11.25;9.00;;;;;10.53;60.93;100738.97;5017245;28;45464;-64
2023/03/12 04:48:14;;;;;;;;;11.25;8.25;;;;;10.52;61.10;100745.97;5017040;28;46432;-64
2023/03/12 04:50:39;;;;;;;;;8.75;4.75;;;;;10.53;61.20;100757.34;5001162;28;45324;-65
2023/03/12 04:53:04;;;;;;;;;8.75;5.75;;;;;10.49;61.07;100751.28;5012090;28;45663;-64
2023/03/12 04:55:30;;;;;;;;;10.50;6.50;;;;;10.52;61.00;100755.63;5016989;28;45670;-64
2023/03/12 04:57:55;;;;;;;;;9.75;6.00;;;;;10.51;61.23;100759.13;5016915;28;54122;-64
2023/03/12 05:00:21;;;;;;;;;8.25;5.75;;;;;10.52;61.35;100755.63;5008353;28;45397;-64
2023/03/12 05:02:46;;;;;;;;;17.00;9.00;;;;;10.51;61.17;100746.00;4998928;28;45225;-64
2023/03/12 05:05:11;;;;;;;;;10.00;7.00;;;;;10.52;61.22;100745.97;5016216;28;45484;-64
2023/03/12 05:07:37;;;;;;;;;11.00;5.75;;;;;10.53;61.46;100749.47;5015423;28;46062;-64
2023/03/12 05:10:03;;;;;;;;;17.00;7.75;;;;;10.54;61.49;100748.56;5015361;28;47860;-64
2023/03/12 05:12:28;;;;;;;;;9.25;7.00;;;;;10.53;61.25;100750.34;5017052;28;45397;-64
2023/03/12 05:14:53;;;;;;;;;7.75;4.50;;;;;10.53;61.33;100763.47;5015509;28;45804;-63
2023/03/12 05:17:19;;;;;;;;;11.00;6.00;;;;;10.55;61.52;100771.31;5016711;28;47173;-64
2023/03/12 05:19:44;;;;;;;;;9.50;6.00;;;;;10.54;61.61;100770.47;5016868;28;45522;-64
2023/03/12 05:22:10;;;;;;;;;11.50;7.50;;;;;10.53;61.35;100768.72;5016633;28;45370;-64
2023/03/12 05:24:35;;;;;;;;;7.50;4.50;;;;;10.58;61.48;100784.44;5016830;28;47761;-64
2023/03/12 05:27:00;;;;;;;;;6.75;5.25;;;;;10.55;61.76;100785.34;5016535;28;45353;-63
2023/03/12 05:29:26;;;;;;;;;10.75;5.00;;;;;10.57;61.52;100775.66;5016770;28;45376;-64
2023/03/12 05:31:51;;;;;;;;;11.25;6.25;;;;;10.59;61.18;100782.66;5031974;28;45491;-64
2023/03/12 05:34:16;;;;;;;;;11.00;5.25;;;;;10.57;61.47;100777.44;5016707;28;45389;-64
2023/03/12 05:36:42;;;;;;;;;8.25;5.50;;;;;10.59;61.50;100783.56;5016228;28;46091;-64
2023/03/12 05:39:07;;;;;;;;;11.00;6.75;;;;;10.60;61.40;100787.03;5016625;28;45302;-64
2023/03/12 05:41:33;;;;;;;;;8.25;8.25;;;;;10.61;61.53;100789.63;5016603;28;45463;-64
2023/03/12 05:43:59;;;;;;;;;10.25;6.25;;;;;10.63;61.44;100792.25;5016369;28;45403;-64
2023/03/12 05:46:25;;;;;;;;;8.25;6.50;;;;;10.63;61.73;100803.66;5015315;28;46327;-64
2023/03/12 05:48:51;;;;;;;;;9.25;5.75;;;;;10.63;61.52;100801.00;5014451;28;45455;-64
2023/03/12 05:51:17;;;;;;;;;12.75;4.50;;;;;10.64;61.71;100800.13;4996431;28;45420;-64
2023/03/12 05:53:43;;;;;;;;;8.50;4.00;;;;;10.65;61.68;100796.59;5016136;28;45302;-64
2023/03/12 05:56:11;;;;;;;;;15.00;8.75;;;;;10.67;61.39;100799.22;5048055;28;47260;-64
2023/03/12 05:58:37;;;;;;;;;6.75;6.00;;;;;10.67;61.55;100800.06;5016253;28;45335;-64
2023/03/12 06:01:10;;;;;;;;;8.00;5.25;;;;;10.68;61.60;100799.19;5002966;28;45305;-64
2023/03/12 06:03:35;;;;;;;;;11.75;7.25;;;;;10.69;61.77;100797.41;5004334;28;45333;-64
2023/03/12 06:06:00;;;;;;;;;7.75;5.25;;;;;10.67;61.64;100797.44;5014765;28;47338;-64
2023/03/12 06:08:26;;;;;;;;;8.00;7.25;;;;;10.72;61.67;100814.00;5015883;28;45260;-64
2023/03/12 06:10:53;;;;;;;;;6.25;6.00;;;;;10.73;61.48;100820.16;5015911;28;45348;-64
2023/03/12 06:13:20;;;;;;;;;9.25;6.25;;;;;10.76;61.70;100820.09;5016142;28;45902;-64
2023/03/12 06:15:45;;;;;;;;;5.00;4.00;;;;;10.77;61.78;100820.97;5015765;28;46212;-64
2023/03/12 06:18:10;;;;;;;;;8.75;5.50;;;;;10.78;61.59;100822.72;5016976;28;45290;-64
2023/03/12 06:20:35;;;;;;;;;11.25;7.50;;;;;10.77;61.40;100836.72;5019143;28;45436;-64
2023/03/12 06:23:01;;;;;;;;;6.75;6.00;;;;;10.78;61.46;100826.22;5018737;28;53049;-64
2023/03/12 06:25:26;;;;;;;;;8.00;5.75;;;;;10.76;61.71;100819.25;5018949;28;45293;-64
2023/03/12 06:27:51;;;;;;;;;7.00;4.00;;;;;10.79;61.79;100830.59;5019052;28;47881;-64
2023/03/12 06:30:17;;;;;;;;;7.75;4.50;;;;;10.78;61.64;100822.72;5019110;28;45518;-64
2023/03/12 06:32:42;;;;;;;;;7.00;3.25;;;;;10.78;61.81;100818.34;5019135;28;45566;-64
2023/03/12 06:35:08;;;;;;;;;5.25;4.00;;;;;10.79;61.77;100813.94;5017468;28;48063;-64
2023/03/12 06:37:34;;;;;;;;;5.25;3.25;;;;;10.79;61.73;100821.81;5018778;28;45378;-64
2023/03/12 06:39:59;;;;;;;;;13.50;6.00;;;;;10.79;61.53;100824.44;5018863;28;45379;-64
2023/03/12 06:42:25;;;;;;;;;12.25;4.25;;;;;10.79;61.46;100813.94;5019072;28;46529;-64
2023/03/12 06:44:51;;;;;;;;;12.50;5.00;;;;;10.78;61.67;100812.19;5018710;28;45456;-64
2023/03/12 06:47:16;;;;;;;;;13.00;6.75;;;;;10.80;61.71;100815.69;5033818;28;45412;-64
2023/03/12 06:49:42;;;;;;;;;10.25;5.25;;;;;10.80;61.82;100821.78;5010201;28;45339;-64
2023/03/12 06:52:07;;;;;;;;;10.50;6.75;;;;;10.80;61.53;100818.31;5004083;28;45454;-64
2023/03/12 06:54:33;;;;;;;;;13.00;7.00;;;;;10.80;61.49;100832.31;5018428;28;46264;-64
2023/03/12 06:56:58;;;;;;;;;18.75;7.25;;;;;10.80;61.62;100832.31;5018540;28;45264;-64
2023/03/12 06:59:24;;;;;;;;;12.50;9.50;;;;;10.82;61.49;100846.31;5018812;28;45758;-64
2023/03/12 07:01:50;;;;;;;;;10.75;6.50;;;;;10.82;61.65;100848.09;5018532;28;45226;-65
2023/03/12 07:04:16;;;;;;;;;14.00;9.25;;;;;10.82;61.52;100848.94;5018377;28;45441;-65
2023/03/12 07:06:41;;;;;;;;;11.50;9.00;;;;;10.84;61.71;100848.91;5018303;28;45162;-65
2023/03/12 07:09:07;;;;;;;;;9.75;7.25;;;;;10.85;61.62;100853.28;5018237;28;45226;-65
2023/03/12 07:11:32;;;;;;;;;15.00;9.50;;;;;10.86;61.95;100866.41;5017176;28;45225;-65
2023/03/12 07:13:58;;;;;;;;;11.25;8.25;;;;;10.89;61.80;100870.75;5018498;28;46437;-65
2023/03/12 07:16:23;;;;;;;;;9.50;8.50;;;;;10.92;61.63;100861.94;5017080;28;45399;-65
2023/03/12 07:18:49;;;;;;;;;8.50;4.50;;;;;10.91;61.68;100855.84;5017295;28;45401;-65
2023/03/12 07:21:21;;;;;;;;;9.25;5.00;;;;;10.94;61.89;100853.16;5018047;28;45569;-65
2023/03/12 07:23:47;;;;;;;;;9.75;6.50;;;;;10.96;61.83;100848.75;5018215;28;47160;-65
2023/03/12 07:26:12;;;;;;;;;10.25;8.00;;;;;10.99;61.58;100863.63;5018151;28;45250;-65
2023/03/12 07:28:38;;;;;;;;;9.25;7.25;;;;;10.92;61.78;100862.84;5017416;28;46748;-65
2023/03/12 07:31:04;;;;;;;;;12.50;9.50;;;;;11.00;61.92;100860.09;5018177;28;45516;-65
2023/03/12 07:33:29;;;;;;;;;11.75;8.00;;;;;11.02;61.97;100858.31;5018286;28;45297;-65
2023/03/12 07:35:55;;;;;;;;;10.50;5.75;;;;;11.03;61.93;100871.44;5017906;28;45328;-65
2023/03/12 07:38:20;;;;;;;;;9.00;6.00;;;;;11.02;61.96;100874.09;5018000;28;45279;-65
2023/03/12 07:40:56;;;;;;;;;9.50;7.75;;;;;11.07;61.92;100890.69;5017985;28;45315;-65
2023/03/12 07:43:23;;;;;;;;;7.50;5.00;;;;;11.08;62.02;100900.31;5018007;28;46297;-65
2023/03/12 07:45:49;;;;;;;;;10.00;4.00;;;;;11.08;62.00;100913.47;5018014;28;45282;-65
2023/03/12 07:48:15;;;;;;;;;12.50;9.25;;;;;11.11;61.83;100909.94;5016682;28;45254;-65
2023/03/12 07:50:41;;;;;;;;;11.50;5.00;;;;;11.12;61.81;100904.63;5001067;28;45308;-65
2023/03/12 07:53:06;;;;;;;;;13.75;6.75;;;;;11.12;61.93;100909.91;5012506;28;46132;-65
2023/03/12 07:55:33;;;;;;;;;7.00;6.00;;;;;11.15;62.06;100906.34;5017957;28;45344;-65
2023/03/12 07:57:59;;;;;;;;;12.50;8.75;;;;;11.16;62.00;100905.47;5017965;28;45226;-65
2023/03/12 08:00:26;;;;;;;;;10.75;7.50;;;;;11.18;61.99;100909.81;5009944;28;45329;-65
2023/03/12 08:02:51;;;;;;;;;8.00;6.25;;;;;11.19;61.77;100906.31;4999705;28;46635;-65
2023/03/12 08:05:17;;;;;;;;;13.25;6.00;;;;;11.22;61.88;100902.75;5017781;28;45354;-65
2023/03/12 08:07:42;;;;;;;;;10.25;7.50;;;;;11.25;61.90;100905.31;5017682;28;45443;-65
2023/03/12 08:10:09;;;;;;;;;13.00;4.75;;;;;11.25;61.85;100891.31;5017785;28;45577;-65
2023/03/12 08:12:36;;;;;;;;;13.25;5.00;;;;;11.28;61.67;100892.16;5017716;28;45242;-65
2023/03/12 08:15:02;;;;;;;;;13.00;8.25;;;;;11.31;61.92;100894.72;5017499;28;45359;-65
2023/03/12 08:17:27;;;;;;;;;9.50;4.75;;;;;11.34;62.05;100909.59;5016461;28;45289;-65
2023/03/12 08:19:53;;;;;;;;;10.25;5.75;;;;;11.35;62.21;100898.19;5017399;28;47663;-65
2023/03/12 08:22:18;;;;;;;;;12.25;6.25;;;;;11.42;61.75;100899.84;5017002;28;55959;-65
2023/03/12 08:24:43;;;;;;;;;7.00;5.25;;;;;11.43;62.03;100901.53;5017680;28;45317;-65
2023/03/12 08:27:10;;;;;;;;;14.00;9.25;;;;;11.47;62.04;100897.09;5017707;28;45219;-65
2023/03/12 08:29:36;;;;;;;;;12.25;6.25;;;;;11.51;61.67;100886.53;5017539;28;45316;-65
2023/03/12 08:32:01;;;;;;;;;14.25;9.00;;;;;11.56;61.95;100896.97;5017190;28;46360;-65
2023/03/12 08:34:26;;;;;;;;;7.00;4.00;;;;;11.58;62.14;100900.44;5017645;28;45340;-65
2023/03/12 08:36:52;;;;;;;;;10.50;7.00;;;;;11.65;62.13;100904.72;5015232;28;45236;-65
2023/03/12 08:39:17;;;;;;;;;15.00;8.25;;;;;11.67;62.14;100895.06;5003569;28;45442;-65
2023/03/12 08:41:42;;;;;;;;;14.50;7.00;;;;;11.76;62.06;100898.41;5016997;28;49070;-65
2023/03/12 08:44:08;;;;;;;;;11.00;6.75;;;;;11.81;62.17;100915.00;5017508;28;45321;-65
2023/03/12 08:46:33;;;;;;;;;8.75;5.50;;;;;11.86;62.10;100926.31;5017402;28;45315;-65
2023/03/12 08:48:59;;;;;;;;;7.00;6.00;;;;;11.89;62.25;100910.47;5014244;28;45702;-65
2023/03/12 08:51:24;;;;;;;;;14.75;6.25;;;;;11.95;61.89;100930.56;4997970;28;46354;-65
2023/03/12 08:53:49;;;;;;;;;9.75;6.75;;;;;11.98;61.87;100936.69;5017369;28;45200;-65
2023/03/12 08:56:15;;;;;;;;;13.50;7.25;;;;;11.99;62.02;100937.56;5016997;28;45543;-64
2023/03/12 08:58:40;;;;;;;;;6.75;3.00;;;;;12.12;62.19;100943.50;5017405;28;45203;-65
2023/03/12 09:01:10;;;;;;;;;8.50;6.50;;;;;12.17;62.04;100952.19;5016996;28;46281;-65
2023/03/12 09:03:36;;;;;;;;;6.50;3.75;;;;;12.23;62.26;100938.91;5017294;28;45561;-66
2023/03/12 09:06:15;;;;;;;;;9.50;7.25;;;;;12.26;62.03;100944.09;5016763;28;45774;-64
2023/03/12 09:08:42;;;;;;;;;6.50;4.50;;;;;12.33;62.14;100950.16;5017190;28;45222;-66
2023/03/12 09:11:08;;;;;;;;;7.75;5.75;;;;;12.35;62.16;100946.59;5016511;28;45196;-64
2023/03/12 09:13:34;;;;;;;;;13.00;7.50;;;;;12.43;62.19;100941.16;5016945;28;45254;-64
2023/03/12 09:16:01;;;;;;;;;11.50;6.00;;;;;12.49;62.02;100941.06;5032115;28;45582;-63
2023/03/12 09:18:27;;;;;;;;;8.00;4.25;;;;;12.54;61.93;100935.72;5016853;28;45468;-64
2023/03/12 09:20:52;;;;;;;;;14.25;8.00;;;;;12.62;61.88;100939.03;5016375;28;46373;-64
2023/03/12 09:23:18;;;;;;;;;4.75;4.00;;;;;12.65;62.09;100940.75;5016510;28;45329;-64
2023/03/12 09:25:45;;;;;;;;;5.75;4.00;;;;;12.71;62.04;100943.28;5016657;28;45409;-64
2023/03/12 09:28:10;;;;;;;;;12.00;7.75;;;;;12.65;61.97;100931.09;5016684;28;45246;-64
2023/03/12 09:30:36;;;;;;;;;11.00;6.75;;;;;12.82;61.60;100956.25;5016280;28;45177;-63
2023/03/12 09:33:02;;;;;;;;;15.00;12.25;;;;;12.87;61.89;100957.03;5016747;28;45327;-63
2023/03/12 09:35:27;;;;;;;;;13.50;11.50;;;;;12.93;61.75;100949.00;5016307;28;45572;-64
2023/03/12 09:37:52;;;;;;;;;15.75;12.25;;;;;12.98;61.66;100947.13;5015090;28;45260;-65
2023/03/12 09:40:22;;;;;;;;;23.25;19.00;;;;;13.00;61.77;100952.38;5015742;28;59392;-64
2023/03/12 09:43:00;;;;;;;;;9.00;7.75;;;;;13.07;61.70;100950.44;5016577;28;45256;-63
2023/03/12 09:45:31;;;;;;;;;6.00;4.00;;;;;13.12;61.50;100965.28;5031689;28;45263;-64
2023/03/12 09:47:58;;;;;;;;;10.50;7.00;;;;;13.15;61.62;100959.09;5016276;28;45369;-64
2023/03/12 09:50:29;;;;;;;;;9.00;5.75;;;;;13.17;61.56;100966.06;5001514;28;45502;-64
2023/03/12 09:53:01;;;;;;;;;7.75;2.50;;;;;13.20;61.56;100962.50;5012528;28;45235;-64
2023/03/12 09:55:35;;;;;;;;;7.00;5.00;;;;;13.21;61.59;100966.00;5019193;28;45222;-64
2023/03/12 09:58:00;;;;;;;;;10.00;8.00;;;;;13.24;61.21;100969.44;5019006;28;45731;-64
2023/03/12 10:00:32;;;;;;;;;9.75;4.75;;;;;13.26;61.04;100970.28;5010856;28;46208;-64
2023/03/12 10:03:25;;;;;;;;;10.50;5.00;;;;;13.29;61.02;100969.34;5001876;28;45277;-64
2023/03/12 10:06:14;;;;;;;;;8.50;5.50;;;;;13.31;60.82;100963.13;5019395;28;45418;-64
2023/03/12 10:08:42;;;;;;;;;17.50;10.50;;;;;13.33;60.96;100966.59;5019144;28;45235;-68
2023/03/12 10:11:08;;;;;;;;;13.50;7.00;;;;;13.36;60.07;100951.59;5018884;28;45334;-64
2023/03/12 10:13:51;;;;;;;;;7.25;3.50;;;;;13.37;60.54;100948.06;5019505;28;45291;-64
2023/03/12 10:16:37;;;;;;;;;7.25;5.75;;;;;13.41;60.20;100960.31;5019200;28;45342;-65
2023/03/12 10:19:21;;;;;;;;;6.25;4.25;;;;;13.42;60.33;100943.56;5018979;28;45242;-64
2023/03/12 10:22:04;;;;;;;;;9.00;5.25;;;;;13.45;60.25;100954.06;5018845;28;46260;-64
2023/03/12 10:24:58;;;;;;;;;10.50;6.50;;;;;13.45;60.21;100951.44;5018788;28;45315;-64
2023/03/12 10:27:28;;;;;;;;;23.75;18.75;;;;;13.45;60.10;100954.94;5018800;28;45379;-65
2023/03/12 10:29:54;;;;;;;;;9.25;6.75;;;;;13.50;59.77;100949.56;5017873;28;46070;-64
2023/03/12 10:32:37;;;;;;;;;10.75;9.25;;;;;13.53;60.06;100953.91;5018794;28;45176;-64
2023/03/12 10:35:14;;;;;;;;;16.50;12.00;;;;;13.57;59.61;100968.75;5034230;28;45264;-64
2023/03/12 10:37:46;;;;;;;;;9.75;8.50;;;;;13.61;59.46;100963.38;5018857;28;45404;-64
2023/03/12 10:40:18;;;;;;;;;7.75;6.00;;;;;13.65;59.38;100966.81;5018637;28;45385;-64
2023/03/12 10:42:43;;;;;;;;;8.75;6.25;;;;;13.72;59.29;100954.31;5018804;28;46116;-64
2023/03/12 10:45:09;;;;;;;;;4.00;4.00;;;;;13.78;59.35;100962.97;5018774;28;45479;-64
2023/03/12 10:47:42;;;;;;;;;7.75;5.00;;;;;13.87;59.50;100963.66;5018668;28;45528;-64
2023/03/12 10:50:10;;;;;;;;;12.00;6.50;;;;;13.93;59.58;100952.94;5006363;28;45371;-65
2023/03/12 10:52:35;;;;;;;;;15.25;13.00;;;;;13.94;59.65;100958.19;5009279;28;45309;-65
2023/03/12 10:55:28;;;;;;;;;18.25;14.00;;;;;14.02;59.69;100959.78;5018363;28;45161;-65
2023/03/12 10:57:55;;;;;;;;;21.75;17.75;;;;;14.03;59.05;100949.16;5018896;28;45345;-67
2023/03/12 11:00:24;;;;;;;;;10.00;7.25;;;;;14.08;58.98;100954.34;5011205;28;45230;-67
2023/03/12 11:03:17;;;;;;;;;16.25;11.00;;;;;14.09;58.97;100946.34;4999159;28;45342;-64
2023/03/12 11:05:48;;;;;;;;;7.75;4.00;;;;;14.11;58.75;100947.19;5018717;28;45225;-65
2023/03/12 11:08:26;;;;;;;;;10.00;3.75;;;;;14.12;58.49;100969.19;5018450;28;45321;-66
2023/03/12 11:10:54;;;;;;;;;8.25;4.25;;;;;14.14;58.45;100964.75;5018122;28;45448;-66
2023/03/12 11:13:39;;;;;;;;;6.50;3.75;;;;;14.12;58.92;100962.16;5017030;28;45490;-65
2023/03/12 11:16:14;;;;;;;;;9.50;5.00;;;;;14.11;58.81;100944.56;5016933;28;45860;-65
2023/03/12 11:18:39;;;;;;;;;30.50;27.50;;;;;14.12;58.08;100948.06;5018468;28;45226;-65